Time;durP1;ratioP1;P1;durP2;ratioP2;P2;SDS_P1;SDS_P2;PMS_P1;PMS_P2;Temp;Humidity;BMP_temperature;BMP_pressure;BME280_temperature;BME280_humidity;BME280_pressure;Samples;Min_cycle;Max_cycle;Signal;HPM_P1;HPM_P2
2022/10/01 00:01:12;;;;;;;13.70;11.38;;;11.30;98.50;;;;;;5008422;28;20173;-69
2022/10/01 00:03:38;;;;;;;12.85;10.38;;;11.30;98.50;;;;;;5011885;28;20065;-69
2022/10/01 00:06:03;;;;;;;13.55;10.43;;;11.20;98.50;;;;;;5007846;28;20120;-68
2022/10/01 00:08:32;;;;;;;11.57;10.27;;;11.20;98.60;;;;;;4996489;28;20034;-69
2022/10/01 00:11:01;;;;;;;12.95;10.02;;;11.20;98.80;;;;;;5003687;28;20026;-69
2022/10/01 00:13:29;;;;;;;13.20;10.18;;;11.20;98.60;;;;;;5011046;28;20045;-69
2022/10/01 00:15:55;;;;;;;11.90;9.70;;;11.20;98.60;;;;;;4996985;28;20022;-68
2022/10/01 00:18:21;;;;;;;11.15;9.90;;;11.20;98.60;;;;;;4983163;28;20038;-68
2022/10/01 00:20:46;;;;;;;16.83;10.90;;;11.10;98.70;;;;;;4987596;28;20071;-69
2022/10/01 00:23:14;;;;;;;12.25;9.98;;;11.10;98.70;;;;;;5020053;28;20029;-70
2022/10/01 00:25:40;;;;;;;13.10;10.60;;;11.10;98.70;;;;;;5006828;28;20193;-69
2022/10/01 00:28:06;;;;;;;14.50;10.65;;;11.10;98.70;;;;;;5011653;28;20048;-71
2022/10/01 00:30:33;;;;;;;15.10;10.23;;;11.00;98.70;;;;;;5010748;28;20113;-69
2022/10/01 00:32:59;;;;;;;12.48;9.65;;;11.10;98.80;;;;;;5004940;28;20638;-70
2022/10/01 00:35:25;;;;;;;11.75;9.50;;;11.00;98.80;;;;;;5001432;28;20030;-69
2022/10/01 00:37:51;;;;;;;13.55;10.40;;;11.00;98.80;;;;;;5003514;28;20381;-70
2022/10/01 00:40:19;;;;;;;13.60;10.57;;;11.00;98.80;;;;;;5010941;28;20054;-69
2022/10/01 00:42:46;;;;;;;11.65;9.55;;;11.00;98.90;;;;;;5006643;28;20062;-70
2022/10/01 00:45:15;;;;;;;12.48;10.02;;;11.00;98.90;;;;;;4982034;28;20018;-69
2022/10/01 00:47:53;;;;;;;13.23;10.15;;;10.90;98.90;;;;;;5010534;28;20085;-69
2022/10/01 00:50:27;;;;;;;13.48;9.93;;;11.00;99.00;;;;;;5002596;28;21813;-68
2022/10/01 00:52:58;;;;;;;11.93;9.65;;;10.90;99.00;;;;;;5011354;28;20029;-69
2022/10/01 00:55:32;;;;;;;13.20;10.10;;;10.90;99.00;;;;;;5004136;28;20401;-68
2022/10/01 00:57:59;;;;;;;14.20;10.77;;;10.90;99.10;;;;;;4999014;28;20029;-70
2022/10/01 01:00:25;;;;;;;13.52;10.25;;;10.90;99.00;;;;;;5003619;28;20437;-69
2022/10/01 01:02:51;;;;;;;12.02;9.88;;;10.90;99.10;;;;;;4996067;28;20027;-68
2022/10/01 01:05:17;;;;;;;11.93;10.30;;;10.90;99.10;;;;;;4997725;28;20037;-69
2022/10/01 01:07:47;;;;;;;14.02;10.23;;;10.90;99.20;;;;;;5011736;28;20088;-69
2022/10/01 01:10:15;;;;;;;11.85;9.18;;;10.80;99.20;;;;;;5010580;28;20026;-70
2022/10/01 01:12:59;;;;;;;11.40;9.75;;;10.90;99.30;;;;;;5011175;28;20469;-69
2022/10/01 01:15:36;;;;;;;13.27;9.57;;;10.80;99.30;;;;;;5003377;28;20459;-69
2022/10/01 01:18:20;;;;;;;10.13;9.02;;;10.80;99.30;;;;;;5011215;28;20033;-69
2022/10/01 01:21:16;;;;;;;13.13;9.43;;;10.80;99.30;;;;;;5000300;28;20482;-69
2022/10/01 01:24:17;;;;;;;11.30;9.13;;;10.80;99.20;;;;;;4997909;28;20385;-68
2022/10/01 01:27:17;;;;;;;12.98;9.88;;;10.80;99.20;;;;;;5004634;28;20982;-68
2022/10/01 01:29:59;;;;;;;11.52;9.75;;;10.80;99.20;;;;;;4973434;28;20072;-69
2022/10/01 01:32:37;;;;;;;10.70;8.93;;;10.70;99.30;;;;;;4999753;28;20501;-70
2022/10/01 01:35:06;;;;;;;11.90;9.52;;;10.70;99.40;;;;;;5013248;28;20474;-69
2022/10/01 01:37:41;;;;;;;11.20;9.10;;;10.70;99.40;;;;;;5006389;28;20486;-69
2022/10/01 01:40:11;;;;;;;11.85;9.35;;;10.70;99.40;;;;;;5005647;28;20432;-68
2022/10/01 01:42:40;;;;;;;10.10;8.38;;;10.70;99.40;;;;;;5009929;28;20557;-68
2022/10/01 01:45:12;;;;;;;11.18;8.85;;;10.70;99.50;;;;;;5011485;28;20503;-67
2022/10/01 01:47:40;;;;;;;12.50;8.23;;;10.60;99.50;;;;;;5013978;28;20382;-67
2022/10/01 01:50:07;;;;;;;9.52;8.27;;;10.70;99.60;;;;;;5013696;28;20057;-67
2022/10/01 01:52:33;;;;;;;10.98;9.13;;;10.70;99.60;;;;;;5014083;28;20029;-68
2022/10/01 01:55:01;;;;;;;10.15;8.38;;;10.60;99.60;;;;;;5009706;28;20034;-68
2022/10/01 01:57:28;;;;;;;10.57;8.25;;;10.70;99.60;;;;;;5017997;28;20033;-68
2022/10/01 01:59:54;;;;;;;10.48;8.10;;;10.60;99.70;;;;;;5025761;28;20108;-68
2022/10/01 02:02:24;;;;;;;10.88;8.35;;;10.60;99.70;;;;;;5008105;28;20469;-68
2022/10/01 02:04:54;;;;;;;10.27;8.50;;;10.60;99.80;;;;;;5004680;28;20037;-67
2022/10/01 02:07:46;;;;;;;12.02;8.73;;;10.60;99.80;;;;;;4996052;28;20058;-68
2022/10/01 02:10:37;;;;;;;9.70;8.40;;;10.60;99.80;;;;;;4979784;28;20038;-67
2022/10/01 02:13:11;;;;;;;10.10;8.63;;;10.60;99.80;;;;;;4995334;28;20065;-68
2022/10/01 02:16:03;;;;;;;11.48;8.90;;;10.60;99.80;;;;;;5010184;28;20030;-68
2022/10/01 02:18:47;;;;;;;12.43;8.77;;;10.60;99.80;;;;;;4998954;28;20046;-68
2022/10/01 02:21:25;;;;;;;11.00;9.75;;;10.60;99.80;;;;;;4999377;28;20100;-68
2022/10/01 02:24:08;;;;;;;9.82;8.82;;;10.60;99.80;;;;;;5014436;28;20039;-68
2022/10/01 02:26:35;;;;;;;12.10;8.98;;;10.60;99.80;;;;;;4997821;28;20022;-68
2022/10/01 02:29:07;;;;;;;11.32;10.07;;;10.60;99.90;;;;;;5014446;28;20038;-69
2022/10/01 02:31:34;;;;;;;12.48;8.45;;;10.60;99.90;;;;;;4992307;28;20022;-69
2022/10/01 02:34:03;;;;;;;11.00;8.65;;;10.60;99.90;;;;;;5014871;28;20029;-68
2022/10/01 02:36:31;;;;;;;11.45;8.90;;;10.60;99.90;;;;;;5000011;28;20041;-69
2022/10/01 02:38:59;;;;;;;14.70;9.82;;;10.60;99.90;;;;;;5008579;28;20171;-69
2022/10/01 02:41:30;;;;;;;12.73;9.20;;;10.60;99.90;;;;;;5007859;28;20030;-69
2022/10/01 02:44:00;;;;;;;11.70;9.93;;;10.60;99.90;;;;;;5012830;28;20381;-69
2022/10/01 02:46:43;;;;;;;12.75;10.43;;;10.60;99.90;;;;;;5000759;28;20030;-69
2022/10/01 02:49:12;;;;;;;12.48;10.23;;;10.70;99.90;;;;;;4977739;28;20034;-69
2022/10/01 02:51:58;;;;;;;12.00;9.13;;;10.60;99.90;;;;;;4995022;28;20022;-69
2022/10/01 02:54:30;;;;;;;10.95;8.90;;;10.60;99.90;;;;;;5013245;28;20034;-69
2022/10/01 02:59:41;;;;;;;14.00;10.40;;;10.60;99.90;;;;;;5005725;28;20038;-68
2022/10/01 03:02:07;;;;;;;14.43;10.70;;;10.60;99.90;;;;;;4998397;28;20022;-68
2022/10/01 03:04:33;;;;;;;11.65;9.38;;;10.60;99.90;;;;;;5013606;28;20026;-70
2022/10/01 03:07:02;;;;;;;11.27;9.45;;;10.60;99.90;;;;;;5001181;28;20026;-69
2022/10/01 03:09:32;;;;;;;11.25;9.40;;;10.60;99.90;;;;;;5013729;28;20042;-69
2022/10/01 03:11:58;;;;;;;10.80;9.20;;;10.60;99.90;;;;;;5008950;28;20018;-69
2022/10/01 03:14:24;;;;;;;11.70;9.73;;;10.60;99.90;;;;;;5005825;28;20120;-69
2022/10/01 03:16:51;;;;;;;12.82;9.80;;;10.60;99.90;;;;;;4997531;28;20113;-69
2022/10/01 03:19:16;;;;;;;11.95;9.68;;;10.60;99.90;;;;;;5012469;28;20042;-69
2022/10/01 03:21:42;;;;;;;9.57;8.57;;;10.60;99.90;;;;;;5007462;28;20067;-69
2022/10/01 03:24:08;;;;;;;10.57;9.30;;;10.60;99.90;;;;;;5012202;28;20103;-68
2022/10/01 03:26:37;;;;;;;10.63;9.07;;;10.60;99.90;;;;;;4986866;28;20172;-68
2022/10/01 03:29:03;;;;;;;12.65;9.43;;;10.60;99.90;;;;;;4995591;28;20117;-69
2022/10/01 03:31:28;;;;;;;13.50;9.70;;;10.60;99.90;;;;;;5009228;28;20041;-69
2022/10/01 03:33:59;;;;;;;10.80;8.90;;;10.60;99.90;;;;;;5008084;28;20030;-69
2022/10/01 03:36:26;;;;;;;10.18;8.77;;;10.60;99.90;;;;;;4978832;28;20022;-70
2022/10/01 03:38:51;;;;;;;11.70;9.25;;;10.60;99.90;;;;;;4979395;28;20026;-69
2022/10/01 03:41:17;;;;;;;11.10;9.05;;;10.60;99.90;;;;;;4999561;28;20037;-69
2022/10/01 03:43:43;;;;;;;10.05;9.05;;;10.60;99.90;;;;;;5001149;28;20705;-69
2022/10/01 03:46:10;;;;;;;10.07;8.30;;;10.60;99.90;;;;;;5012986;28;20492;-69
2022/10/01 03:48:36;;;;;;;12.60;9.27;;;10.60;99.90;;;;;;5009091;28;20092;-69
2022/10/01 03:51:03;;;;;;;11.85;9.40;;;10.60;99.90;;;;;;5012441;28;20025;-69
2022/10/01 03:53:30;;;;;;;10.63;8.30;;;10.60;99.90;;;;;;5011796;28;20033;-68
2022/10/01 03:55:56;;;;;;;11.90;8.68;;;10.50;99.90;;;;;;4992698;28;20074;-68
2022/10/01 03:58:22;;;;;;;11.30;8.75;;;10.60;99.90;;;;;;5011148;28;20038;-68
2022/10/01 04:00:49;;;;;;;10.48;8.85;;;10.60;99.90;;;;;;4993992;28;20045;-68
2022/10/01 04:03:15;;;;;;;9.32;8.18;;;10.60;99.90;;;;;;5010123;28;20030;-68
2022/10/01 04:05:42;;;;;;;10.57;9.35;;;10.60;99.90;;;;;;5002119;28;20049;-67
2022/10/01 04:08:08;;;;;;;12.15;8.70;;;10.50;99.90;;;;;;5010548;28;20045;-68
2022/10/01 04:10:34;;;;;;;10.07;8.52;;;10.50;99.90;;;;;;4996700;28;20026;-68
2022/10/01 04:13:00;;;;;;;11.48;9.05;;;10.50;99.90;;;;;;5011873;28;20038;-68
2022/10/01 04:15:26;;;;;;;10.15;7.85;;;10.50;99.90;;;;;;4993884;28;20485;-68
2022/10/01 04:17:52;;;;;;;12.77;8.77;;;10.60;99.90;;;;;;5011069;28;20026;-68
2022/10/01 04:20:18;;;;;;;10.43;8.35;;;10.50;99.90;;;;;;5005315;28;20488;-68
2022/10/01 04:22:44;;;;;;;9.38;8.13;;;10.50;99.90;;;;;;4994120;28;20073;-68
2022/10/01 04:25:11;;;;;;;9.93;8.43;;;10.50;99.90;;;;;;5000219;28;20037;-68
2022/10/01 04:27:38;;;;;;;9.93;8.18;;;10.50;99.90;;;;;;5011165;28;20079;-68
2022/10/01 04:30:06;;;;;;;10.68;7.95;;;10.50;99.90;;;;;;5001321;28;20381;-68
2022/10/01 04:32:32;;;;;;;12.27;8.73;;;10.50;99.90;;;;;;5006491;28;20611;-68
2022/10/01 04:34:58;;;;;;;10.25;8.00;;;10.50;99.90;;;;;;5011660;28;20065;-68
2022/10/01 04:37:26;;;;;;;9.32;7.88;;;10.50;99.90;;;;;;4994309;28;20026;-68
2022/10/01 04:39:52;;;;;;;9.98;8.07;;;10.50;99.90;;;;;;5006456;28;20034;-68
2022/10/01 04:42:17;;;;;;;10.65;7.70;;;10.50;99.90;;;;;;5005429;28;20168;-68
2022/10/01 04:44:43;;;;;;;11.82;8.55;;;10.50;99.90;;;;;;5005050;28;20061;-69
2022/10/01 04:47:09;;;;;;;10.85;8.27;;;10.50;99.90;;;;;;5006376;28;20025;-68
2022/10/01 04:49:35;;;;;;;9.95;7.60;;;10.50;99.90;;;;;;5008981;28;20117;-68
2022/10/01 04:52:02;;;;;;;10.40;7.90;;;10.60;99.90;;;;;;4999794;28;20058;-68
2022/10/01 04:54:27;;;;;;;10.05;7.57;;;10.60;99.90;;;;;;4991835;28;20393;-68
2022/10/01 04:56:53;;;;;;;10.73;7.93;;;10.50;99.90;;;;;;5002215;28;20031;-68
2022/10/01 04:59:18;;;;;;;8.73;7.82;;;10.50;99.90;;;;;;5008600;28;20037;-68
2022/10/01 05:01:45;;;;;;;10.07;7.72;;;10.50;99.90;;;;;;5007987;28;20455;-69
2022/10/01 05:04:11;;;;;;;9.00;7.45;;;10.50;99.90;;;;;;5007798;28;20033;-68
2022/10/01 05:06:37;;;;;;;9.50;7.45;;;10.60;99.90;;;;;;4981736;28;20076;-69
2022/10/01 05:09:03;;;;;;;8.93;6.72;;;10.50;99.90;;;;;;5010737;28;20046;-68
2022/10/01 05:11:29;;;;;;;9.13;6.97;;;10.50;99.90;;;;;;4999996;28;20033;-69
2022/10/01 05:13:55;;;;;;;8.25;7.05;;;10.60;99.90;;;;;;5011949;28;20556;-68
2022/10/01 05:16:21;;;;;;;11.48;7.65;;;10.50;99.90;;;;;;5010788;28;20029;-68
2022/10/01 05:18:46;;;;;;;8.35;7.45;;;10.50;99.90;;;;;;4995870;28;20033;-68
2022/10/01 05:21:14;;;;;;;8.65;6.88;;;10.50;99.90;;;;;;5017020;28;20018;-68
2022/10/01 05:23:41;;;;;;;8.70;7.18;;;10.60;99.90;;;;;;5003952;28;20030;-69
2022/10/01 05:26:08;;;;;;;9.50;7.65;;;10.50;99.90;;;;;;4998666;28;20025;-69
2022/10/01 05:28:35;;;;;;;8.20;6.85;;;10.60;99.90;;;;;;5015247;28;20493;-69
2022/10/01 05:31:02;;;;;;;8.95;6.90;;;10.60;99.90;;;;;;5002007;28;20101;-69
2022/10/01 05:33:29;;;;;;;7.38;6.20;;;10.60;99.90;;;;;;5014276;28;20045;-68
2022/10/01 05:35:56;;;;;;;10.55;6.90;;;10.60;99.90;;;;;;5006601;28;20563;-67
2022/10/01 05:38:22;;;;;;;8.77;6.95;;;10.60;99.90;;;;;;4996995;28;20058;-69
2022/10/01 05:40:47;;;;;;;9.48;6.90;;;10.70;99.90;;;;;;5011069;28;20177;-72
2022/10/01 05:43:13;;;;;;;8.80;7.57;;;10.60;99.90;;;;;;5014069;28;20033;-70
2022/10/01 05:45:39;;;;;;;9.60;7.03;;;10.70;99.90;;;;;;5011684;28;20117;-69
2022/10/01 05:48:07;;;;;;;11.20;6.80;;;10.70;99.90;;;;;;5032486;28;20142;-70
2022/10/01 05:50:42;;;;;;;9.48;6.60;;;10.70;99.90;;;;;;5013580;28;20026;-70
2022/10/01 05:53:10;;;;;;;8.18;6.72;;;10.70;99.90;;;;;;5014293;28;20048;-70
2022/10/01 05:55:36;;;;;;;9.77;6.90;;;10.70;99.90;;;;;;4994578;28;20441;-69
2022/10/01 05:58:10;;;;;;;8.55;6.53;;;10.70;99.80;;;;;;4995468;28;20022;-72
2022/10/01 06:00:37;;;;;;;8.15;6.47;;;10.70;99.90;;;;;;4993376;28;20057;-71
2022/10/01 06:03:04;;;;;;;10.70;6.85;;;10.80;99.90;;;;;;4995678;28;20042;-71
2022/10/01 06:05:31;;;;;;;11.00;6.20;;;10.90;99.90;;;;;;4993877;28;20026;-71
2022/10/01 06:07:57;;;;;;;7.70;5.95;;;10.90;99.90;;;;;;4994168;28;20053;-71
2022/10/01 06:10:24;;;;;;;9.48;6.82;;;10.90;99.90;;;;;;4991220;28;20026;-71
2022/10/01 06:12:50;;;;;;;7.72;6.35;;;11.00;99.90;;;;;;4993411;28;20061;-70
2022/10/01 06:15:17;;;;;;;9.35;6.25;;;11.00;99.90;;;;;;4989406;28;20034;-70
2022/10/01 06:17:44;;;;;;;11.50;6.65;;;11.10;99.90;;;;;;4994691;28;20026;-70
2022/10/01 06:20:15;;;;;;;10.63;5.82;;;11.10;99.90;;;;;;4987157;28;20477;-70
2022/10/01 06:22:42;;;;;;;8.07;6.22;;;11.20;99.80;;;;;;4975362;28;20054;-70
2022/10/01 06:25:14;;;;;;;9.98;6.65;;;11.30;99.80;;;;;;4990908;28;20037;-70
2022/10/01 06:27:40;;;;;;;9.15;6.60;;;11.30;99.70;;;;;;4994846;28;20030;-70
2022/10/01 06:30:06;;;;;;;7.05;6.05;;;11.30;99.70;;;;;;4991069;28;20034;-70
2022/10/01 06:32:32;;;;;;;8.98;6.13;;;11.40;99.60;;;;;;4992470;28;20496;-70
2022/10/01 06:34:58;;;;;;;9.18;6.38;;;11.40;99.60;;;;;;4988540;28;20053;-71
2022/10/01 06:37:24;;;;;;;7.68;6.05;;;11.40;99.60;;;;;;5000412;28;20409;-71
2022/10/01 06:39:49;;;;;;;7.05;6.05;;;11.40;99.50;;;;;;5000771;28;20023;-70
2022/10/01 06:42:15;;;;;;;7.10;6.10;;;11.50;99.50;;;;;;4980974;28;20134;-71
2022/10/01 06:44:41;;;;;;;7.72;6.63;;;11.50;99.50;;;;;;4990802;28;20034;-71
2022/10/01 06:47:07;;;;;;;7.63;6.07;;;11.60;99.50;;;;;;4992365;28;20042;-71
2022/10/01 06:49:33;;;;;;;7.28;5.93;;;11.60;99.40;;;;;;4992208;28;20068;-70
2022/10/01 06:54:44;;;;;;;7.57;5.97;;;11.70;99.40;;;;;;4982587;28;20064;-69
2022/10/01 06:57:10;;;;;;;7.50;5.75;;;11.70;99.40;;;;;;5004891;28;20393;-71
2022/10/01 06:59:36;;;;;;;8.30;5.63;;;11.70;99.40;;;;;;5000222;28;20018;-70
2022/10/01 07:02:03;;;;;;;8.40;5.70;;;11.80;99.30;;;;;;4994713;28;20026;-70
2022/10/01 07:04:29;;;;;;;9.77;6.47;;;11.80;99.30;;;;;;5012056;28;20044;-71
2022/10/01 07:06:56;;;;;;;7.88;5.78;;;11.80;99.30;;;;;;5013177;28;20490;-70
2022/10/01 07:09:25;;;;;;;7.70;6.07;;;11.90;99.30;;;;;;5007509;28;20038;-70
2022/10/01 07:11:51;;;;;;;12.18;6.00;;;11.90;99.30;;;;;;5012073;28;20041;-71
2022/10/01 07:14:17;;;;;;;9.68;6.10;;;11.90;99.20;;;;;;5011991;28;20456;-70
2022/10/01 07:16:43;;;;;;;9.73;6.75;;;11.90;99.20;;;;;;5013428;28;20030;-71
2022/10/01 07:19:08;;;;;;;7.57;5.68;;;12.00;99.20;;;;;;5010495;28;20064;-70
2022/10/01 07:21:35;;;;;;;9.20;6.05;;;12.10;99.20;;;;;;5010324;28;20025;-71
2022/10/01 07:24:01;;;;;;;8.23;6.30;;;12.10;99.20;;;;;;5009707;28;20025;-71
2022/10/01 07:26:26;;;;;;;9.27;5.55;;;12.10;99.10;;;;;;4998767;28;20044;-71
2022/10/01 07:28:54;;;;;;;6.45;5.25;;;12.10;99.10;;;;;;5003400;28;20762;-70
2022/10/01 07:31:19;;;;;;;7.43;5.47;;;12.20;99.10;;;;;;5005706;28;20022;-71
2022/10/01 07:33:45;;;;;;;7.20;5.95;;;12.20;99.00;;;;;;5011715;28;20030;-71
2022/10/01 07:36:12;;;;;;;9.20;5.53;;;12.20;99.00;;;;;;4999954;28;20026;-71
2022/10/01 07:38:37;;;;;;;11.27;6.43;;;12.20;98.90;;;;;;5005671;28;20113;-71
2022/10/01 07:41:03;;;;;;;7.55;5.93;;;12.30;98.90;;;;;;5011596;28;20108;-70
2022/10/01 07:43:30;;;;;;;10.65;6.45;;;12.30;99.00;;;;;;5012171;28;20029;-71
2022/10/01 07:45:56;;;;;;;6.38;5.40;;;12.30;99.00;;;;;;5001150;28;20038;-71
2022/10/01 07:48:23;;;;;;;9.25;6.28;;;12.40;99.00;;;;;;4986065;28;20494;-71
2022/10/01 07:50:49;;;;;;;7.63;6.00;;;12.50;99.20;;;;;;5003208;28;20077;-71
2022/10/01 07:53:15;;;;;;;7.97;6.80;;;12.50;98.90;;;;;;5008365;28;20065;-71
2022/10/01 07:55:42;;;;;;;7.95;5.68;;;12.60;98.90;;;;;;5011454;28;20444;-70
2022/10/01 07:58:08;;;;;;;8.02;5.90;;;12.70;98.80;;;;;;5011226;28;20022;-70
2022/10/01 08:00:34;;;;;;;10.77;6.13;;;12.80;98.90;;;;;;4994467;28;20354;-70
2022/10/01 08:03:00;;;;;;;7.25;5.68;;;12.80;98.90;;;;;;5012654;28;20037;-68
2022/10/01 08:05:32;;;;;;;9.50;5.40;;;12.90;98.90;;;;;;5010009;28;20022;-69
2022/10/01 08:08:08;;;;;;;8.10;5.95;;;12.90;98.80;;;;;;5011198;28;20034;-69
2022/10/01 08:10:36;;;;;;;10.32;6.32;;;13.00;98.70;;;;;;4994257;28;20041;-69
2022/10/01 08:13:07;;;;;;;9.32;5.35;;;13.10;98.60;;;;;;4993890;28;20890;-70
2022/10/01 08:15:34;;;;;;;7.55;6.32;;;13.10;98.60;;;;;;5008624;28;20018;-69
2022/10/01 08:18:02;;;;;;;6.88;5.57;;;13.20;98.50;;;;;;5011594;28;20033;-69
2022/10/01 08:20:27;;;;;;;7.28;5.57;;;13.20;98.50;;;;;;4993059;28;20021;-67
2022/10/01 08:22:53;;;;;;;9.68;5.35;;;13.30;98.40;;;;;;5010760;28;20169;-69
2022/10/01 08:25:18;;;;;;;9.40;5.85;;;13.40;98.40;;;;;;5006018;28;20030;-69
2022/10/01 08:27:44;;;;;;;9.15;5.82;;;13.40;98.30;;;;;;5004219;28;20335;-69
2022/10/01 08:30:10;;;;;;;6.72;5.32;;;13.50;98.20;;;;;;5009082;28;20034;-69
2022/10/01 08:32:35;;;;;;;8.00;5.90;;;13.50;98.20;;;;;;5002605;28;20076;-68
2022/10/01 08:35:03;;;;;;;10.93;5.72;;;13.60;98.20;;;;;;4999627;28;20492;-69
2022/10/01 08:37:28;;;;;;;8.18;5.07;;;13.60;98.10;;;;;;5002110;28;20061;-69
2022/10/01 08:39:55;;;;;;;6.85;5.07;;;13.60;98.10;;;;;;5008287;28;20057;-68
2022/10/01 08:42:48;;;;;;;12.93;5.05;;;13.70;98.10;;;;;;4992569;28;20045;-68
2022/10/01 08:45:20;;;;;;;7.25;5.45;;;13.70;98.00;;;;;;5008922;28;20108;-68
2022/10/01 08:47:59;;;;;;;5.93;5.00;;;13.70;97.90;;;;;;4990368;28;20040;-68
2022/10/01 08:50:36;;;;;;;5.63;4.70;;;13.80;97.90;;;;;;5007500;28;20172;-68
2022/10/01 08:53:09;;;;;;;6.57;5.03;;;13.80;97.90;;;;;;4988404;28;20380;-68
2022/10/01 08:55:36;;;;;;;7.35;4.78;;;13.90;97.90;;;;;;5016952;28;20042;-69
2022/10/01 08:58:05;;;;;;;7.10;4.95;;;13.90;97.90;;;;;;5017180;28;20392;-68
2022/10/01 09:00:34;;;;;;;8.13;5.28;;;14.00;97.90;;;;;;5008630;28;20117;-68
2022/10/01 09:03:09;;;;;;;7.68;4.80;;;14.10;97.90;;;;;;4999224;28;20038;-67
2022/10/01 09:06:09;;;;;;;7.20;5.18;;;14.20;97.90;;;;;;5002544;28;20026;-68
2022/10/01 09:08:54;;;;;;;6.10;4.60;;;14.30;97.80;;;;;;5011694;28;20034;-69
2022/10/01 09:11:51;;;;;;;5.32;4.65;;;14.40;97.80;;;;;;5008159;28;20038;-69
2022/10/01 09:14:43;;;;;;;6.30;4.47;;;14.50;97.70;;;;;;5016470;28;20105;-69
2022/10/01 09:17:18;;;;;;;7.15;4.72;;;14.60;97.50;;;;;;4999801;28;20033;-69
2022/10/01 09:19:44;;;;;;;5.53;4.28;;;14.60;97.30;;;;;;5016387;28;20022;-69
2022/10/01 09:22:27;;;;;;;5.28;4.00;;;14.70;97.20;;;;;;5012002;28;20032;-69
2022/10/01 09:25:16;;;;;;;7.15;4.65;;;14.80;97.00;;;;;;5017504;28;20029;-69
2022/10/01 09:27:42;;;;;;;6.20;4.38;;;14.90;97.00;;;;;;5004690;28;20033;-69
2022/10/01 09:30:15;;;;;;;8.80;4.95;;;14.90;96.90;;;;;;5009157;28;20021;-69
2022/10/01 09:32:58;;;;;;;6.05;3.85;;;15.00;96.80;;;;;;5011784;28;20556;-69
2022/10/01 09:35:43;;;;;;;4.13;3.33;;;15.00;96.70;;;;;;4989484;28;20034;-70
2022/10/01 09:38:20;;;;;;;6.32;3.67;;;15.10;96.60;;;;;;5013752;28;20129;-70
2022/10/01 09:40:56;;;;;;;4.30;3.45;;;15.30;96.60;;;;;;5014124;28;20026;-70
2022/10/01 09:43:30;;;;;;;5.60;3.30;;;15.30;96.50;;;;;;5013089;28;20029;-71
2022/10/01 09:45:56;;;;;;;4.55;3.08;;;15.50;96.50;;;;;;5017079;28;20036;-71
2022/10/01 09:48:33;;;;;;;4.80;3.58;;;15.50;96.50;;;;;;5016516;28;20042;-71
2022/10/01 09:51:13;;;;;;;4.93;2.67;;;15.50;96.40;;;;;;5009376;28;20030;-70
2022/10/01 09:54:03;;;;;;;6.78;3.38;;;15.60;96.20;;;;;;4998588;28;20028;-69
2022/10/01 09:56:52;;;;;;;5.63;2.47;;;15.50;96.00;;;;;;4991255;28;20051;-70
2022/10/01 09:59:28;;;;;;;4.45;2.83;;;15.50;95.90;;;;;;5011533;28;20117;-70
2022/10/01 10:01:59;;;;;;;4.45;2.70;;;15.40;95.90;;;;;;5013309;28;20038;-72
2022/10/01 10:04:25;;;;;;;4.85;2.83;;;15.40;96.00;;;;;;4997731;28;20076;-70
2022/10/01 10:06:59;;;;;;;4.10;2.60;;;15.40;96.00;;;;;;5012303;28;20022;-71
2022/10/01 10:09:30;;;;;;;4.05;2.20;;;15.30;96.00;;;;;;5012958;28;20069;-70
2022/10/01 10:11:58;;;;;;;3.42;2.40;;;15.30;96.10;;;;;;5007533;28;20041;-72
2022/10/01 10:14:36;;;;;;;4.25;2.80;;;15.20;96.40;;;;;;4995497;28;20070;-68
2022/10/01 10:17:11;;;;;;;6.18;3.00;;;15.10;96.30;;;;;;5009963;28;20034;-72
2022/10/01 10:19:37;;;;;;;5.18;2.83;;;15.10;96.50;;;;;;5013054;28;20025;-68
2022/10/01 10:22:23;;;;;;;3.75;2.72;;;15.10;96.60;;;;;;5013528;28;20037;-69
2022/10/01 10:24:50;;;;;;;4.25;3.00;;;15.00;96.80;;;;;;4992983;28;20029;-70
2022/10/01 10:27:28;;;;;;;4.03;3.05;;;14.90;97.00;;;;;;4991893;28;20044;-68
2022/10/01 10:30:05;;;;;;;4.65;3.30;;;14.90;97.10;;;;;;5000000;28;20030;-70
2022/10/01 10:32:32;;;;;;;4.65;3.20;;;14.90;97.40;;;;;;5011888;28;20128;-68
2022/10/01 10:35:04;;;;;;;5.00;3.30;;;14.80;97.40;;;;;;4995666;28;20029;-70
2022/10/01 10:37:35;;;;;;;4.35;3.05;;;14.70;97.60;;;;;;5013396;28;20033;-71
2022/10/01 10:40:04;;;;;;;5.15;3.35;;;14.70;97.70;;;;;;5012823;28;20021;-71
2022/10/01 10:42:32;;;;;;;5.13;3.90;;;14.60;97.80;;;;;;5013089;28;20040;-71
2022/10/01 10:45:02;;;;;;;6.53;3.90;;;14.50;97.90;;;;;;5007870;28;20424;-71
2022/10/01 10:47:30;;;;;;;5.03;3.70;;;14.50;98.10;;;;;;5013146;28;20029;-71
2022/10/01 10:50:02;;;;;;;4.50;3.85;;;14.40;98.30;;;;;;5007554;28;20041;-71
2022/10/01 10:52:32;;;;;;;6.93;4.10;;;14.40;98.50;;;;;;5011728;28;20168;-71
2022/10/01 10:55:01;;;;;;;5.05;3.58;;;14.40;98.50;;;;;;5002454;28;20516;-71
2022/10/01 10:57:29;;;;;;;6.20;3.63;;;14.30;98.70;;;;;;5011492;28;20045;-70
2022/10/01 11:00:00;;;;;;;5.03;3.42;;;14.30;98.90;;;;;;5008560;28;20477;-69
2022/10/01 11:02:30;;;;;;;6.85;4.35;;;14.20;98.90;;;;;;5011495;28;20030;-69
2022/10/01 11:05:14;;;;;;;6.50;4.43;;;14.20;99.00;;;;;;5011659;28;20026;-69
2022/10/01 11:07:43;;;;;;;5.50;4.28;;;14.20;99.20;;;;;;4994973;28;20072;-70
2022/10/01 11:10:23;;;;;;;5.60;4.53;;;14.10;99.30;;;;;;5012336;28;20021;-69
2022/10/01 11:13:11;;;;;;;6.13;4.45;;;14.10;99.70;;;;;;5007467;28;20029;-69
2022/10/01 11:15:50;;;;;;;6.60;4.38;;;14.10;99.60;;;;;;4985482;28;20477;-69
2022/10/01 11:18:38;;;;;;;7.05;5.03;;;14.20;99.70;;;;;;5013501;28;20025;-69
2022/10/01 11:21:15;;;;;;;7.07;4.03;;;14.20;99.80;;;;;;5011489;28;20428;-69
2022/10/01 11:23:55;;;;;;;5.35;4.00;;;14.20;99.90;;;;;;5006436;28;20031;-68
2022/10/01 11:26:36;;;;;;;6.47;4.60;;;14.30;99.90;;;;;;5007443;28;20030;-69
2022/10/01 11:29:25;;;;;;;5.90;4.38;;;14.30;99.90;;;;;;5011425;28;20038;-69
2022/10/01 11:32:02;;;;;;;5.55;3.75;;;14.30;99.90;;;;;;5010207;28;20037;-68
2022/10/01 11:34:58;;;;;;;6.55;4.13;;;14.30;99.90;;;;;;5010751;28;20088;-68
2022/10/01 11:37:42;;;;;;;5.85;4.70;;;14.20;99.90;;;;;;5010472;28;20104;-69
2022/10/01 11:40:37;;;;;;;5.13;3.42;;;14.20;99.90;;;;;;5010345;28;20025;-68
2022/10/01 11:43:18;;;;;;;5.03;3.47;;;14.20;99.90;;;;;;4998073;28;20421;-68
2022/10/01 11:45:55;;;;;;;5.05;3.65;;;14.20;99.90;;;;;;5010421;28;20048;-68
2022/10/01 11:48:28;;;;;;;4.35;3.45;;;14.20;99.90;;;;;;5012007;28;20042;-70
2022/10/01 11:51:04;;;;;;;5.88;4.38;;;14.20;99.90;;;;;;5000942;28;20086;-69
2022/10/01 11:53:38;;;;;;;5.45;4.10;;;14.20;99.90;;;;;;4997393;28;20069;-69
2022/10/01 11:59:21;;;;;;;4.35;3.45;;;14.10;99.90;;;;;;4999616;28;20083;-68
2022/10/01 12:02:13;;;;;;;4.68;3.67;;;14.10;99.90;;;;;;5005584;28;20113;-68
2022/10/01 12:04:51;;;;;;;5.68;3.90;;;14.10;99.90;;;;;;5010100;28;20034;-68
2022/10/01 12:07:37;;;;;;;5.47;3.60;;;14.10;99.90;;;;;;5008102;28;20037;-68
2022/10/01 12:10:22;;;;;;;4.82;3.47;;;14.10;99.90;;;;;;5018821;28;20029;-67
2022/10/01 12:13:02;;;;;;;6.55;3.78;;;14.10;99.90;;;;;;4998152;28;20452;-68
2022/10/01 12:15:40;;;;;;;4.75;3.55;;;14.10;99.90;;;;;;5012642;28;20034;-68
2022/10/01 12:18:48;;;;;;;4.35;3.50;;;14.00;99.90;;;;;;5015113;28;20385;-68
2022/10/01 12:21:22;;;;;;;5.97;3.78;;;14.00;99.90;;;;;;4951833;28;20027;-69
2022/10/01 12:23:58;;;;;;;5.47;3.42;;;14.00;99.90;;;;;;5001046;28;20481;-68
2022/10/01 12:26:47;;;;;;;6.25;3.92;;;14.00;99.90;;;;;;5012103;28;20045;-68
2022/10/01 12:29:40;;;;;;;7.65;3.83;;;14.00;99.90;;;;;;5011028;28;20039;-68
2022/10/01 12:32:13;;;;;;;5.05;4.15;;;14.00;99.90;;;;;;5004129;28;20036;-68
2022/10/01 12:34:50;;;;;;;6.03;3.78;;;14.00;99.90;;;;;;5009776;28;20489;-69
2022/10/01 12:37:27;;;;;;;6.18;4.70;;;14.00;99.90;;;;;;5009161;28;20041;-69
2022/10/01 12:40:10;;;;;;;8.27;4.43;;;14.00;99.90;;;;;;5008515;28;20476;-67
2022/10/01 12:42:51;;;;;;;5.18;3.67;;;14.00;99.90;;;;;;5011419;28;20083;-69
2022/10/01 12:45:50;;;;;;;4.90;3.30;;;14.00;99.90;;;;;;4993152;28;20481;-68
2022/10/01 12:48:31;;;;;;;5.25;3.22;;;14.00;99.90;;;;;;4996413;28;20049;-67
2022/10/01 12:51:16;;;;;;;5.13;3.42;;;14.00;99.90;;;;;;4992724;28;20481;-67
2022/10/01 12:53:54;;;;;;;4.93;3.00;;;14.00;99.90;;;;;;4999249;28;20030;-67
2022/10/01 12:56:39;;;;;;;5.53;4.05;;;14.00;99.90;;;;;;4998121;28;20129;-66
2022/10/01 12:59:19;;;;;;;5.05;4.10;;;14.00;99.90;;;;;;5000584;28;20508;-66
2022/10/01 13:02:00;;;;;;;5.30;4.13;;;14.00;99.90;;;;;;5004086;28;20069;-66
2022/10/01 13:05:00;;;;;;;4.72;3.60;;;13.90;99.90;;;;;;5010750;28;20153;-66
2022/10/01 13:07:47;;;;;;;4.18;3.20;;;13.90;99.90;;;;;;5005121;28;20084;-66
2022/10/01 13:10:50;;;;;;;4.55;3.63;;;13.90;99.90;;;;;;5010741;28;20511;-65
2022/10/01 13:13:25;;;;;;;3.90;3.10;;;13.90;99.90;;;;;;5014170;28;20026;-66
2022/10/01 13:15:58;;;;;;;4.85;3.38;;;13.90;99.90;;;;;;5003413;28;20031;-66